createdAt,value
2023-01-17T00:02:13.770Z,4.80
2023-01-17T00:04:59.483Z,4.82
2023-01-17T00:07:46.299Z,4.82
2023-01-17T00:10:19.067Z,4.85
2023-01-17T00:12:49.511Z,4.84
2023-01-17T00:15:19.922Z,4.95
2023-01-17T00:17:49.126Z,4.75
2023-01-17T00:20:38.175Z,4.88
2023-01-17T00:23:26.108Z,4.78
2023-01-17T00:26:04.601Z,4.83
2023-01-17T00:28:35.277Z,4.85
2023-01-17T00:31:04.637Z,4.82
2023-01-17T00:33:32.100Z,4.85
2023-01-17T00:36:00.141Z,4.82
2023-01-17T00:38:29.751Z,4.86
2023-01-17T00:41:02.658Z,4.80
2023-01-17T00:43:49.736Z,4.89
2023-01-17T00:46:36.325Z,4.81
2023-01-17T00:49:22.842Z,4.78
2023-01-17T00:52:08.780Z,4.84
2023-01-17T00:54:54.665Z,4.80
2023-01-17T00:57:42.166Z,4.78
2023-01-17T01:00:30.226Z,4.68
2023-01-17T01:03:16.178Z,4.70
2023-01-17T01:06:02.212Z,4.70
2023-01-17T01:08:49.917Z,4.76
2023-01-17T01:11:39.254Z,4.71
2023-01-17T01:14:29.403Z,4.43
2023-01-17T01:17:15.478Z,4.69
2023-01-17T01:20:01.470Z,4.52
2023-01-17T01:22:47.328Z,4.61
2023-01-17T01:25:33.727Z,4.64
2023-01-17T01:28:23.880Z,4.60
2023-01-17T01:31:11.009Z,4.55
2023-01-17T01:33:39.565Z,4.61
2023-01-17T01:36:10.006Z,4.56
2023-01-17T01:38:38.771Z,4.43
2023-01-17T01:41:07.671Z,4.43
2023-01-17T01:43:47.066Z,4.39
2023-01-17T01:46:19.786Z,4.33
2023-01-17T01:48:53.794Z,4.34
2023-01-17T01:51:29.148Z,4.34
2023-01-17T01:54:03.776Z,4.41
2023-01-17T01:56:32.954Z,4.34
2023-01-17T01:59:04.234Z,4.34
2023-01-17T02:01:38.638Z,4.34
2023-01-17T02:04:09.997Z,4.17
2023-01-17T02:06:41.342Z,4.20
2023-01-17T02:09:12.443Z,4.37
2023-01-17T02:11:42.210Z,4.26
2023-01-17T02:14:16.367Z,4.34
2023-01-17T02:17:13.411Z,4.22
2023-01-17T02:20:51.113Z,4.19
2023-01-17T02:24:11.170Z,4.08
2023-01-17T02:27:04.738Z,4.18
2023-01-17T02:30:14.563Z,4.22
2023-01-17T02:32:56.527Z,4.10
2023-01-17T02:35:35.881Z,4.18
2023-01-17T02:38:28.264Z,4.12
2023-01-17T02:41:01.858Z,4.10
2023-01-17T02:43:30.614Z,4.18
2023-01-17T02:45:58.999Z,4.17
2023-01-17T02:48:32.179Z,4.10
2023-01-17T02:51:42.341Z,4.12
2023-01-17T02:54:29.136Z,4.15
2023-01-17T02:57:15.361Z,4.09
2023-01-17T02:59:56.988Z,4.14
2023-01-17T03:02:32.326Z,4.10
2023-01-17T03:05:05.502Z,4.16
2023-01-17T03:07:35.247Z,4.15
2023-01-17T03:10:05.424Z,4.16
2023-01-17T03:12:36.951Z,4.16
2023-01-17T03:15:10.858Z,4.17
2023-01-17T03:17:42.560Z,4.13
2023-01-17T03:20:13.564Z,4.01
2023-01-17T03:22:41.892Z,4.13
2023-01-17T03:25:10.538Z,4.04
2023-01-17T03:27:38.890Z,4.07
2023-01-17T03:30:09.171Z,4.15
2023-01-17T03:32:37.569Z,4.06
2023-01-17T03:35:07.139Z,4.10
2023-01-17T03:37:36.836Z,4.07
2023-01-17T03:40:06.200Z,3.90
2023-01-17T03:42:34.695Z,3.92
2023-01-17T03:45:03.191Z,4.11
2023-01-17T03:47:31.545Z,3.97
2023-01-17T03:49:59.879Z,4.04
2023-01-17T03:52:28.269Z,4.04
2023-01-17T03:54:58.048Z,4.01
2023-01-17T03:57:26.371Z,3.97
2023-01-17T03:59:54.802Z,3.93
2023-01-17T04:02:24.225Z,3.92
2023-01-17T04:04:52.719Z,3.85
2023-01-17T04:07:21.068Z,3.77
2023-01-17T04:09:49.518Z,3.71
2023-01-17T04:12:19.221Z,3.74
2023-01-17T04:14:48.258Z,3.77
2023-01-17T04:17:20.096Z,3.85
2023-01-17T04:19:48.877Z,3.70
2023-01-17T04:22:17.250Z,3.67
2023-01-17T04:24:45.611Z,3.74
2023-01-17T04:27:14.699Z,3.68
2023-01-17T04:29:46.602Z,3.68
2023-01-17T04:32:15.827Z,3.70
2023-01-17T04:34:44.149Z,3.69
2023-01-17T04:37:12.487Z,3.54
2023-01-17T04:39:40.831Z,3.56
2023-01-17T04:42:09.123Z,3.50
2023-01-17T04:44:37.472Z,3.49
2023-01-17T04:47:07.232Z,3.42
2023-01-17T04:49:35.598Z,3.38
2023-01-17T04:52:04.079Z,3.40
2023-01-17T04:54:32.583Z,3.40
2023-01-17T04:57:00.947Z,3.32
2023-01-17T04:59:29.344Z,3.29
2023-01-17T05:01:57.823Z,3.22
2023-01-17T05:04:27.633Z,3.21
2023-01-17T05:06:55.962Z,3.29
2023-01-17T05:09:24.492Z,3.30
2023-01-17T05:11:52.760Z,3.29
2023-01-17T05:14:21.139Z,3.30
2023-01-17T05:16:49.480Z,3.37
2023-01-17T05:19:19.633Z,3.26
2023-01-17T05:21:50.745Z,3.22
2023-01-17T05:24:19.928Z,3.12
2023-01-17T05:26:54.866Z,3.15
2023-01-17T05:29:23.677Z,3.28
2023-01-17T05:31:51.954Z,3.20
2023-01-17T05:34:20.316Z,3.23
2023-01-17T05:36:49.962Z,3.11
2023-01-17T05:39:18.394Z,3.10
2023-01-17T05:41:47.026Z,2.98
2023-01-17T05:44:16.307Z,2.99
2023-01-17T05:46:44.667Z,3.02
2023-01-17T05:49:13.085Z,3.00
2023-01-17T05:51:41.394Z,3.06
2023-01-17T05:54:11.106Z,3.03
2023-01-17T05:56:39.457Z,3.11
2023-01-17T05:59:07.795Z,3.14
2023-01-17T06:01:36.111Z,3.15
2023-01-17T06:04:04.497Z,3.20
2023-01-17T06:06:32.846Z,3.12
2023-01-17T06:09:01.291Z,3.06
2023-01-17T06:11:31.847Z,3.15
2023-01-17T06:14:00.186Z,3.12
2023-01-17T06:16:28.555Z,3.18
2023-01-17T06:18:56.906Z,3.21
2023-01-17T06:21:25.278Z,3.16
2023-01-17T06:23:56.409Z,3.13
2023-01-17T06:26:24.683Z,3.14
2023-01-17T06:28:54.407Z,3.19
2023-01-17T06:31:22.738Z,3.24
2023-01-17T06:33:51.138Z,3.21
2023-01-17T06:36:19.515Z,3.17
2023-01-17T06:38:51.647Z,3.29
2023-01-17T06:41:20.001Z,3.32
2023-01-17T06:43:48.442Z,3.23
2023-01-17T06:46:18.162Z,3.33
2023-01-17T06:48:48.752Z,3.33
2023-01-17T06:51:17.436Z,3.34
2023-01-17T06:53:45.985Z,3.16
2023-01-17T06:56:14.290Z,3.30
2023-01-17T06:58:42.660Z,3.21
2023-01-17T07:01:13.134Z,3.23
2023-01-17T07:03:43.287Z,3.25
2023-01-17T07:06:11.860Z,3.22
2023-01-17T07:08:40.471Z,3.24
2023-01-17T07:11:09.631Z,3.03
2023-01-17T07:13:39.511Z,3.09
2023-01-17T07:16:09.241Z,3.10
2023-01-17T07:18:37.639Z,3.03
2023-01-17T07:21:15.228Z,3.04
2023-01-17T07:23:43.664Z,3.13
2023-01-17T07:26:12.055Z,3.11
2023-01-17T07:28:40.444Z,2.95
2023-01-17T07:31:09.963Z,3.02
2023-01-17T07:33:38.370Z,3.05
2023-01-17T07:36:10.229Z,2.96
2023-01-17T07:38:38.777Z,2.93
2023-01-17T07:41:07.223Z,2.99
2023-01-17T07:43:36.673Z,2.93
2023-01-17T07:46:07.941Z,2.90
2023-01-17T07:48:36.998Z,2.96
2023-01-17T07:51:07.148Z,2.92
2023-01-17T07:53:35.588Z,2.98
2023-01-17T07:56:05.665Z,2.98
2023-01-17T07:58:35.571Z,2.90
2023-01-17T08:01:05.571Z,2.98
2023-01-17T08:03:36.663Z,2.89
2023-01-17T08:06:05.416Z,2.92
2023-01-17T08:08:35.273Z,2.92
2023-01-17T08:11:03.651Z,3.02
2023-01-17T08:13:31.971Z,3.02
2023-01-17T08:16:02.459Z,3.10
2023-01-17T08:18:31.256Z,3.11
2023-01-17T08:20:59.721Z,2.97
2023-01-17T08:23:28.085Z,3.02
2023-01-17T08:26:01.975Z,3.02
2023-01-17T08:28:30.484Z,3.03
2023-01-17T08:30:58.893Z,3.13
2023-01-17T08:33:27.215Z,3.27
2023-01-17T08:35:56.164Z,3.30
2023-01-17T08:38:24.756Z,3.17
2023-01-17T08:40:53.155Z,3.29
2023-01-17T08:43:22.967Z,3.21
2023-01-17T08:45:55.962Z,3.17
2023-01-17T08:48:24.653Z,3.23
2023-01-17T08:50:53.261Z,3.31
2023-01-17T08:53:23.191Z,3.27
2023-01-17T08:55:59.795Z,3.38
2023-01-17T08:58:31.491Z,3.30
2023-01-17T09:01:02.735Z,3.34
2023-01-17T09:03:31.840Z,3.29
2023-01-17T09:06:05.438Z,3.33
2023-01-17T09:08:34.705Z,3.30
2023-01-17T09:11:05.673Z,3.31
2023-01-17T09:13:35.480Z,3.31
2023-01-17T09:16:04.482Z,3.35
2023-01-17T09:18:34.322Z,3.36
2023-01-17T09:21:12.390Z,3.62
2023-01-17T09:23:41.027Z,3.69
2023-01-17T09:26:17.619Z,3.73
2023-01-17T09:28:47.441Z,3.88
2023-01-17T09:31:17.590Z,3.77
2023-01-17T09:33:46.262Z,3.67
2023-01-17T09:36:14.836Z,3.85
2023-01-17T09:38:43.620Z,3.83
2023-01-17T09:41:27.656Z,3.88
2023-01-17T09:44:05.825Z,3.85
2023-01-17T09:46:40.318Z,3.83
2023-01-17T09:49:14.083Z,3.74
2023-01-17T09:51:43.530Z,3.76
2023-01-17T09:54:23.033Z,3.81
2023-01-17T09:57:02.329Z,3.86
2023-01-17T09:59:45.630Z,3.87
2023-01-17T10:02:41.685Z,3.87
2023-01-17T10:05:33.269Z,3.94
2023-01-17T10:08:20.037Z,3.91
2023-01-17T10:11:15.170Z,3.93
2023-01-17T10:13:54.140Z,3.96
2023-01-17T10:16:38.851Z,4.14
2023-01-17T10:19:24.229Z,4.15
2023-01-17T10:22:17.417Z,4.39
2023-01-17T10:25:10.502Z,4.33
2023-01-17T10:27:43.269Z,4.37
2023-01-17T10:30:19.821Z,4.45
2023-01-17T10:32:50.838Z,4.86
2023-01-17T10:35:28.263Z,5.52
2023-01-17T10:37:59.799Z,5.88
2023-01-17T10:40:38.447Z,5.94
2023-01-17T10:43:16.247Z,5.89
2023-01-17T10:45:54.359Z,5.84
2023-01-17T10:48:39.947Z,6.45
2023-01-17T10:51:23.098Z,7.09
2023-01-17T10:54:18.064Z,6.89
2023-01-17T10:56:46.544Z,6.95
2023-01-17T10:59:30.642Z,7.47
2023-01-17T11:01:59.751Z,7.95
2023-01-17T11:04:37.188Z,8.45
2023-01-17T11:07:15.020Z,8.44
2023-01-17T11:09:45.674Z,7.98
2023-01-17T11:12:29.598Z,7.24
2023-01-17T11:15:05.391Z,6.48
2023-01-17T11:17:35.298Z,6.42
2023-01-17T11:20:21.084Z,6.24
2023-01-17T11:23:08.488Z,6.09
2023-01-17T11:25:37.221Z,6.04
2023-01-17T11:28:08.543Z,6.24
2023-01-17T11:30:36.929Z,6.29
2023-01-17T11:33:08.861Z,6.74
2023-01-17T11:35:45.468Z,7.29
2023-01-17T11:38:20.033Z,7.33
2023-01-17T11:40:49.972Z,7.32
2023-01-17T11:43:26.807Z,7.18
2023-01-17T11:46:10.500Z,7.06
2023-01-17T11:48:40.329Z,7.21
2023-01-17T11:51:29.809Z,7.70
2023-01-17T11:54:16.757Z,7.83
2023-01-17T11:56:46.444Z,8.11
2023-01-17T11:59:33.543Z,8.15
2023-01-17T12:02:38.546Z,7.88
2023-01-17T12:05:24.313Z,8.14
2023-01-17T12:08:05.154Z,7.95
2023-01-17T12:10:47.054Z,8.03
2023-01-17T12:13:42.659Z,7.91
2023-01-17T12:16:29.715Z,8.22
2023-01-17T12:19:17.939Z,8.00
2023-01-17T12:21:58.151Z,8.16
2023-01-17T12:25:04.189Z,7.83
2023-01-17T12:27:42.628Z,7.76
2023-01-17T12:30:31.928Z,7.84
2023-01-17T12:33:29.403Z,7.98
2023-01-17T12:36:02.766Z,8.07
2023-01-17T12:38:39.115Z,8.09
2023-01-17T12:41:14.684Z,7.77
2023-01-17T12:43:44.741Z,7.46
2023-01-17T12:46:21.224Z,7.11
2023-01-17T12:48:53.931Z,6.75
2023-01-17T12:51:29.471Z,6.63
2023-01-17T12:54:05.300Z,6.66
2023-01-17T12:56:41.512Z,6.74
2023-01-17T12:59:18.406Z,6.69
2023-01-17T13:01:57.864Z,6.61
2023-01-17T13:04:33.260Z,6.71
2023-01-17T13:07:13.743Z,6.65
2023-01-17T13:09:47.445Z,6.59
2023-01-17T13:12:20.656Z,6.58
2023-01-17T13:14:50.065Z,6.44
2023-01-17T13:17:34.007Z,6.36
2023-01-17T13:20:11.005Z,6.46
2023-01-17T13:22:40.571Z,6.42
2023-01-17T13:25:30.813Z,6.31
2023-01-17T13:28:22.943Z,6.29
2023-01-17T13:31:19.552Z,6.25
2023-01-17T13:34:16.215Z,6.21
2023-01-17T13:37:04.671Z,6.11
2023-01-17T13:40:05.812Z,6.00
2023-01-17T13:42:52.253Z,5.83
2023-01-17T13:45:24.387Z,5.79
2023-01-17T13:47:54.214Z,5.61
2023-01-17T13:50:50.474Z,5.61
2023-01-17T13:53:56.330Z,5.58
2023-01-17T13:56:38.849Z,5.66
2023-01-17T13:59:29.285Z,5.63
2023-01-17T14:01:59.145Z,5.63
2023-01-17T14:05:12.482Z,5.62
2023-01-17T14:07:48.580Z,5.56
2023-01-17T14:10:35.018Z,5.62
2023-01-17T14:13:05.541Z,5.61
2023-01-17T14:15:36.547Z,5.47
2023-01-17T14:18:08.214Z,5.43
2023-01-17T14:21:10.602Z,5.52
2023-01-17T14:24:04.468Z,5.65
2023-01-17T14:26:48.175Z,5.55
2023-01-17T14:29:47.851Z,5.45
2023-01-17T14:32:19.662Z,5.17
2023-01-17T14:34:52.631Z,5.06
2023-01-17T14:37:43.611Z,5.01
2023-01-17T14:40:19.779Z,4.92
2023-01-17T14:42:54.178Z,4.86
2023-01-17T14:45:28.282Z,4.81
2023-01-17T14:47:58.588Z,4.87
2023-01-17T14:50:31.431Z,4.67
2023-01-17T14:53:18.075Z,4.46
2023-01-17T14:56:00.583Z,4.52
2023-01-17T14:58:31.898Z,4.32
2023-01-17T15:01:03.501Z,4.22
2023-01-17T15:03:41.808Z,4.20
2023-01-17T15:06:17.991Z,4.24
2023-01-17T15:08:47.193Z,4.13
2023-01-17T15:11:22.378Z,4.12
2023-01-17T15:13:54.847Z,4.12
2023-01-17T15:16:26.595Z,4.15
2023-01-17T15:18:57.225Z,4.20
2023-01-17T15:21:30.993Z,4.02
2023-01-17T15:24:02.271Z,4.00
2023-01-17T15:26:43.451Z,3.87
2023-01-17T15:29:21.434Z,3.94
2023-01-17T15:31:54.062Z,4.02
2023-01-17T15:34:28.646Z,4.03
2023-01-17T15:37:00.845Z,3.97
2023-01-17T15:39:31.982Z,3.95
2023-01-17T15:42:04.636Z,3.93
2023-01-17T15:44:47.550Z,3.86
2023-01-17T15:47:33.287Z,3.78
2023-01-17T15:50:03.993Z,3.68
2023-01-17T15:52:33.729Z,3.75
2023-01-17T15:55:14.199Z,3.63
2023-01-17T15:57:47.676Z,3.68
2023-01-17T16:00:23.884Z,3.69
2023-01-17T16:02:56.193Z,3.64
2023-01-17T16:05:43.721Z,3.68
2023-01-17T16:08:39.588Z,3.57
2023-01-17T16:11:09.611Z,3.52
2023-01-17T16:13:42.191Z,3.47
2023-01-17T16:16:17.382Z,3.55
2023-01-17T16:18:47.611Z,3.49
2023-01-17T16:21:23.563Z,3.53
2023-01-17T16:23:54.048Z,3.54
2023-01-17T16:26:22.891Z,3.55
2023-01-17T16:28:51.869Z,3.45
2023-01-17T16:31:20.659Z,3.43
2023-01-17T16:33:51.741Z,3.37
2023-01-17T16:36:21.378Z,3.40
2023-01-17T16:38:53.177Z,3.41
2023-01-17T16:41:22.551Z,3.43
2023-01-17T16:44:01.210Z,3.37
2023-01-17T16:46:30.684Z,3.41
2023-01-17T16:49:01.669Z,3.38
2023-01-17T16:51:30.013Z,3.32
2023-01-17T16:53:59.763Z,3.29
2023-01-17T16:56:28.157Z,3.26
2023-01-17T16:58:56.637Z,3.31
2023-01-17T17:01:25.494Z,3.29
2023-01-17T17:03:53.862Z,3.31
2023-01-17T17:06:22.233Z,3.26
2023-01-17T17:08:50.573Z,3.19
2023-01-17T17:11:23.145Z,3.23
2023-01-17T17:13:52.724Z,3.21
2023-01-17T17:16:23.815Z,3.22
2023-01-17T17:18:57.376Z,3.25
2023-01-17T17:21:26.261Z,3.21
2023-01-17T17:23:58.136Z,3.21
2023-01-17T17:26:31.210Z,3.15
2023-01-17T17:29:00.135Z,3.23
2023-01-17T17:31:30.147Z,3.24
2023-01-17T17:34:07.319Z,3.16
2023-01-17T17:36:37.041Z,3.24
2023-01-17T17:39:09.267Z,3.25
2023-01-17T17:41:42.442Z,3.18
2023-01-17T17:44:10.937Z,3.16
2023-01-17T17:46:39.525Z,3.16
2023-01-17T17:49:07.924Z,3.18
2023-01-17T17:51:38.527Z,3.20
2023-01-17T17:54:10.140Z,3.26
2023-01-17T17:56:41.208Z,3.31
2023-01-17T17:59:12.567Z,3.29
2023-01-17T18:01:41.095Z,3.24
2023-01-17T18:04:12.313Z,3.22
2023-01-17T18:06:41.440Z,3.14
2023-01-17T18:09:12.122Z,3.13
2023-01-17T18:11:43.853Z,3.08
2023-01-17T18:14:15.458Z,3.01
2023-01-17T18:16:45.646Z,2.92
2023-01-17T18:19:16.138Z,2.97
2023-01-17T18:21:44.978Z,2.95
2023-01-17T18:24:16.037Z,2.89
2023-01-17T18:26:47.839Z,2.87
2023-01-17T18:29:18.816Z,2.81
2023-01-17T18:31:50.133Z,2.75
2023-01-17T18:34:23.799Z,2.81
2023-01-17T18:36:53.156Z,2.80
2023-01-17T18:39:24.402Z,2.82
2023-01-17T18:41:54.283Z,2.77
2023-01-17T18:44:22.906Z,2.82
2023-01-17T18:46:51.391Z,2.80
2023-01-17T18:49:20.076Z,2.72
2023-01-17T18:51:51.091Z,3.38
2023-01-17T18:54:21.993Z,3.63
2023-01-17T18:56:51.052Z,3.93
2023-01-17T18:59:21.564Z,3.81
2023-01-17T19:01:50.399Z,3.54
2023-01-17T19:04:19.330Z,3.69
2023-01-17T19:06:49.226Z,3.99
2023-01-17T19:09:18.201Z,4.13
2023-01-17T19:11:47.533Z,4.35
2023-01-17T19:14:16.135Z,4.37
2023-01-17T19:16:45.860Z,4.30
2023-01-17T19:19:16.486Z,3.98
2023-01-17T19:21:44.865Z,3.83
2023-01-17T19:24:15.497Z,3.96
2023-01-17T19:26:44.040Z,4.02
2023-01-17T19:29:12.479Z,3.96
2023-01-17T19:31:43.295Z,3.87
2023-01-17T19:34:14.790Z,4.48
2023-01-17T19:36:43.992Z,4.52
2023-01-17T19:39:12.581Z,3.90
2023-01-17T19:41:44.567Z,3.36
2023-01-17T19:44:15.163Z,2.94
2023-01-17T19:46:44.042Z,2.68
2023-01-17T19:49:13.770Z,2.52
2023-01-17T19:51:42.052Z,2.30
2023-01-17T19:54:10.635Z,2.25
2023-01-17T19:56:38.987Z,2.15
2023-01-17T19:59:07.344Z,2.21
2023-01-17T20:01:36.346Z,2.10
2023-01-17T20:04:05.907Z,2.10
2023-01-17T20:06:37.337Z,2.09
2023-01-17T20:09:07.062Z,1.88
2023-01-17T20:11:35.406Z,1.92
2023-01-17T20:14:05.511Z,1.95
2023-01-17T20:16:36.572Z,1.90
2023-01-17T20:19:04.979Z,1.99
2023-01-17T20:21:35.205Z,1.95
2023-01-17T20:24:04.289Z,1.90
2023-01-17T20:26:35.888Z,1.85
2023-01-17T20:29:10.473Z,1.86
2023-01-17T20:31:40.565Z,1.86
2023-01-17T20:34:11.627Z,1.90
2023-01-17T20:36:42.711Z,1.88
2023-01-17T20:39:13.728Z,1.93
2023-01-17T20:41:44.683Z,1.87
2023-01-17T20:44:15.318Z,1.84
2023-01-17T20:46:44.366Z,1.86
2023-01-17T20:49:16.061Z,1.89
2023-01-17T20:51:47.324Z,1.90
2023-01-17T20:54:18.597Z,1.90
2023-01-17T20:56:47.935Z,1.84
2023-01-17T20:59:18.673Z,1.89
2023-01-17T21:01:47.740Z,1.96
2023-01-17T21:04:16.828Z,2.01
2023-01-17T21:06:46.585Z,1.93
2023-01-17T21:09:17.268Z,2.00
2023-01-17T21:11:45.688Z,2.06
2023-01-17T21:14:14.575Z,2.14
2023-01-17T21:16:43.323Z,2.00
2023-01-17T21:19:15.835Z,2.05
2023-01-17T21:21:44.179Z,1.97
2023-01-17T21:24:18.451Z,1.98
2023-01-17T21:26:47.334Z,1.98
2023-01-17T21:29:16.441Z,2.01
2023-01-17T21:31:45.350Z,1.93
2023-01-17T21:34:14.716Z,1.98
2023-01-17T21:36:44.046Z,1.91
2023-01-17T21:39:17.126Z,1.79
2023-01-17T21:41:48.028Z,1.85
2023-01-17T21:44:20.336Z,1.82
2023-01-17T21:46:50.083Z,1.79
2023-01-17T21:49:19.191Z,1.73
2023-01-17T21:52:05.162Z,1.79
2023-01-17T21:54:52.337Z,1.78
2023-01-17T21:57:39.988Z,1.60
2023-01-17T22:00:14.446Z,1.67
2023-01-17T22:02:44.427Z,1.66
2023-01-17T22:05:13.366Z,1.68
2023-01-17T22:08:01.894Z,1.70
2023-01-17T22:10:31.593Z,1.64
2023-01-17T22:13:00.135Z,1.72
2023-01-17T22:15:28.556Z,1.64
2023-01-17T22:17:57.142Z,1.61
2023-01-17T22:20:25.775Z,1.54
2023-01-17T22:22:54.190Z,1.55
2023-01-17T22:25:23.352Z,1.50
2023-01-17T22:27:52.988Z,1.51
2023-01-17T22:30:21.495Z,1.48
2023-01-17T22:32:49.804Z,1.50
2023-01-17T22:35:18.312Z,1.46
2023-01-17T22:37:47.366Z,1.44
2023-01-17T22:40:16.058Z,1.52
2023-01-17T22:42:44.365Z,1.48
2023-01-17T22:45:14.854Z,1.40
2023-01-17T22:47:44.717Z,1.45
2023-01-17T22:50:13.971Z,1.46
2023-01-17T22:52:42.271Z,1.49
2023-01-17T22:55:12.171Z,1.56
2023-01-17T22:57:40.537Z,1.53
2023-01-17T23:00:14.518Z,1.50
2023-01-17T23:02:44.658Z,1.41
2023-01-17T23:05:13.057Z,1.34
2023-01-17T23:07:44.306Z,1.24
2023-01-17T23:10:34.896Z,1.23
2023-01-17T23:13:03.246Z,1.21
2023-01-17T23:15:49.002Z,1.29
2023-01-17T23:18:36.039Z,1.32
2023-01-17T23:21:04.359Z,1.35
2023-01-17T23:23:33.717Z,1.24
2023-01-17T23:26:02.396Z,1.27
2023-01-17T23:28:29.713Z,1.19
2023-01-17T23:31:05.010Z,1.19
2023-01-17T23:33:34.779Z,1.30
2023-01-17T23:36:03.083Z,1.22
2023-01-17T23:38:30.555Z,1.28
2023-01-17T23:41:20.881Z,1.17
2023-01-17T23:43:52.761Z,1.16
2023-01-17T23:46:25.375Z,1.15
2023-01-17T23:48:55.890Z,1.17
2023-01-17T23:51:24.300Z,1.25
2023-01-17T23:53:57.333Z,1.29
2023-01-17T23:56:25.893Z,1.22
2023-01-17T23:58:54.251Z,1.30
